Time;durP1;ratioP1;P1;durP2;ratioP2;P2;SDS_P1;SDS_P2;PMS_P1;PMS_P2;Temp;Humidity;BMP_temperature;BMP_pressure;BME280_temperature;BME280_humidity;BME280_pressure;Samples;Min_cycle;Max_cycle;Signal;HPM_P1;HPM_P2
2023/10/21 00:00:43;;;;;;;1.17;0.30;;;;;;;;;;5141312;27;20077;-78
2023/10/21 00:03:09;;;;;;;0.30;0.30;;;;;;;;;;5139052;27;20037;-77
2023/10/21 00:05:35;;;;;;;0.20;0.20;;;;;;;;;;5115181;28;20103;-77
2023/10/21 00:08:03;;;;;;;0.20;0.20;;;;;;;;;;5120565;28;20023;-77
2023/10/21 00:10:29;;;;;;;0.17;0.17;;;;;;;;;;5119637;28;20012;-77
2023/10/21 00:12:55;;;;;;;0.22;0.22;;;;;;;;;;5119300;28;20547;-77
2023/10/21 00:15:21;;;;;;;0.30;0.30;;;;;;;;;;5120883;28;20039;-78
2023/10/21 00:17:47;;;;;;;0.30;0.20;;;;;;;;;;5126512;27;20031;-77
2023/10/21 00:20:14;;;;;;;0.20;0.20;;;;;;;;;;5138903;27;20058;-78
2023/10/21 00:22:40;;;;;;;0.28;0.25;;;;;;;;;;5136953;28;20481;-78
2023/10/21 00:25:07;;;;;;;0.20;0.20;;;;;;;;;;5122595;28;20470;-76
2023/10/21 00:27:33;;;;;;;0.40;0.15;;;;;;;;;;5116907;28;20062;-78
2023/10/21 00:29:59;;;;;;;0.13;0.13;;;;;;;;;;5118961;28;20092;-78
2023/10/21 00:32:25;;;;;;;0.20;0.20;;;;;;;;;;5119349;28;20028;-77
2023/10/21 00:34:52;;;;;;;0.28;0.10;;;;;;;;;;5119615;28;20020;-77
2023/10/21 00:37:18;;;;;;;0.30;0.30;;;;;;;;;;5114358;28;20443;-77
2023/10/21 00:39:44;;;;;;;0.20;0.20;;;;;;;;;;5115991;28;20043;-77
2023/10/21 00:42:10;;;;;;;0.20;0.10;;;;;;;;;;5119353;28;20024;-76
2023/10/21 00:44:37;;;;;;;1.05;0.20;;;;;;;;;;5118292;28;20556;-77
2023/10/21 00:47:03;;;;;;;0.40;0.32;;;;;;;;;;5121814;28;20039;-76
2023/10/21 00:49:29;;;;;;;0.30;0.30;;;;;;;;;;5117767;28;20047;-76
2023/10/21 00:51:59;;;;;;;0.20;0.20;;;;;;;;;;5117847;28;20444;-77
2023/10/21 00:54:26;;;;;;;0.10;0.10;;;;;;;;;;5118036;28;20020;-77
2023/10/21 00:56:52;;;;;;;0.10;0.10;;;;;;;;;;5125506;28;20020;-77
2023/10/21 00:59:18;;;;;;;0.13;0.13;;;;;;;;;;5121272;28;20494;-76
2023/10/21 01:01:45;;;;;;;0.20;0.20;;;;;;;;;;5117780;28;20043;-77
2023/10/21 01:04:12;;;;;;;0.20;0.20;;;;;;;;;;5120151;28;20073;-77
2023/10/21 01:06:38;;;;;;;0.22;0.20;;;;;;;;;;5122449;28;20156;-77
2023/10/21 01:09:04;;;;;;;0.10;0.10;;;;;;;;;;5104487;28;20028;-78
2023/10/21 01:11:31;;;;;;;0.20;0.20;;;;;;;;;;5103929;28;20032;-78
2023/10/21 01:13:57;;;;;;;0.95;0.20;;;;;;;;;;5106315;28;20024;-78
2023/10/21 01:16:23;;;;;;;0.10;0.10;;;;;;;;;;5141223;27;20050;-77
2023/10/21 01:18:49;;;;;;;0.15;0.15;;;;;;;;;;5149717;27;20023;-75
2023/10/21 01:21:16;;;;;;;0.20;0.20;;;;;;;;;;5138435;28;20016;-76
2023/10/21 01:23:42;;;;;;;0.30;0.22;;;;;;;;;;5138027;28;20089;-76
2023/10/21 01:26:08;;;;;;;0.10;0.10;;;;;;;;;;5131887;28;20864;-76
2023/10/21 01:28:35;;;;;;;0.10;0.10;;;;;;;;;;5117074;28;20028;-77
2023/10/21 01:31:02;;;;;;;0.10;0.10;;;;;;;;;;5116855;28;20028;-77
2023/10/21 01:33:28;;;;;;;0.25;0.20;;;;;;;;;;5105054;28;20024;-77
2023/10/21 01:35:54;;;;;;;0.17;0.10;;;;;;;;;;5103141;28;20030;-78
2023/10/21 01:38:20;;;;;;;0.00;0.00;;;;;;;;;;5102878;28;20432;-77
2023/10/21 01:40:47;;;;;;;0.10;0.10;;;;;;;;;;5102642;28;20020;-77
2023/10/21 01:43:13;;;;;;;0.10;0.10;;;;;;;;;;5105343;28;20028;-78
2023/10/21 01:45:40;;;;;;;0.10;0.10;;;;;;;;;;5116924;28;20016;-77
2023/10/21 01:48:06;;;;;;;0.10;0.10;;;;;;;;;;5124387;28;20016;-77
2023/10/21 01:50:32;;;;;;;0.30;0.30;;;;;;;;;;5117775;28;20080;-77
2023/10/21 01:52:58;;;;;;;0.20;0.20;;;;;;;;;;5118027;28;20446;-77
2023/10/21 01:55:25;;;;;;;0.28;0.28;;;;;;;;;;5116230;28;20024;-77
2023/10/21 01:57:51;;;;;;;0.28;0.28;;;;;;;;;;5116201;28;20474;-77
2023/10/21 02:00:20;;;;;;;0.17;0.17;;;;;;;;;;5117363;28;20534;-77
2023/10/21 02:02:53;;;;;;;0.05;0.05;;;;;;;;;;5115959;28;20095;-77
2023/10/21 02:05:20;;;;;;;0.00;0.00;;;;;;;;;;5117105;28;20019;-77
2023/10/21 02:07:47;;;;;;;0.20;0.20;;;;;;;;;;5115131;28;20028;-77
2023/10/21 02:10:13;;;;;;;0.05;0.05;;;;;;;;;;5121054;28;20023;-78
2023/10/21 02:12:39;;;;;;;0.10;0.10;;;;;;;;;;5122346;28;20023;-77
2023/10/21 02:15:11;;;;;;;0.20;0.20;;;;;;;;;;5112729;28;20363;-78
2023/10/21 02:17:38;;;;;;;0.10;0.10;;;;;;;;;;5124290;28;20027;-77
2023/10/21 02:20:05;;;;;;;0.25;0.25;;;;;;;;;;5133552;28;20031;-77
2023/10/21 02:22:31;;;;;;;0.10;0.10;;;;;;;;;;5122996;28;20035;-77
2023/10/21 02:24:57;;;;;;;0.20;0.20;;;;;;;;;;5121035;28;20023;-77
2023/10/21 02:27:23;;;;;;;0.10;0.10;;;;;;;;;;5116869;28;20020;-77
2023/10/21 02:29:49;;;;;;;0.10;0.10;;;;;;;;;;5111003;28;20038;-77
2023/10/21 02:32:16;;;;;;;0.40;0.20;;;;;;;;;;5117301;28;20146;-78
2023/10/21 02:34:42;;;;;;;0.15;0.10;;;;;;;;;;5119549;28;20478;-77
2023/10/21 02:37:08;;;;;;;0.20;0.20;;;;;;;;;;5119112;28;20053;-78
2023/10/21 02:39:35;;;;;;;0.15;0.15;;;;;;;;;;5124509;28;20068;-79
2023/10/21 02:42:01;;;;;;;0.10;0.10;;;;;;;;;;5125685;28;20088;-77
2023/10/21 02:44:27;;;;;;;0.10;0.10;;;;;;;;;;5100760;28;20023;-78
2023/10/21 02:46:53;;;;;;;0.10;0.10;;;;;;;;;;5110809;28;20029;-79
2023/10/21 02:49:19;;;;;;;0.10;0.10;;;;;;;;;;5118857;28;20121;-79
2023/10/21 02:51:45;;;;;;;0.10;0.10;;;;;;;;;;5109111;28;20103;-79
2023/10/21 02:54:11;;;;;;;0.10;0.10;;;;;;;;;;5122137;28;20473;-79
2023/10/21 02:56:41;;;;;;;0.10;0.10;;;;;;;;;;5120590;28;20335;-78
2023/10/21 02:59:07;;;;;;;0.10;0.10;;;;;;;;;;5122368;28;20103;-80
2023/10/21 03:01:33;;;;;;;0.10;0.10;;;;;;;;;;5123207;28;20023;-79
2023/10/21 03:03:59;;;;;;;0.10;0.10;;;;;;;;;;5124196;28;20088;-78
2023/10/21 03:06:26;;;;;;;0.10;0.10;;;;;;;;;;5122447;28;20031;-78
2023/10/21 03:08:52;;;;;;;0.10;0.10;;;;;;;;;;5120523;28;20541;-78
2023/10/21 03:11:18;;;;;;;0.20;0.20;;;;;;;;;;5126062;28;20077;-79
2023/10/21 03:13:44;;;;;;;0.17;0.17;;;;;;;;;;5114620;28;20383;-74
2023/10/21 03:16:11;;;;;;;0.30;0.30;;;;;;;;;;5113611;28;20437;-75
2023/10/21 03:18:40;;;;;;;0.10;0.10;;;;;;;;;;5112469;28;20104;-75
2023/10/21 03:21:06;;;;;;;0.10;0.10;;;;;;;;;;5114152;28;20042;-75
2023/10/21 03:23:32;;;;;;;0.10;0.10;;;;;;;;;;5113814;28;20038;-75
2023/10/21 03:26:00;;;;;;;0.30;0.20;;;;;;;;;;5114787;28;20088;-75
2023/10/21 03:28:26;;;;;;;0.20;0.20;;;;;;;;;;5114797;28;20111;-75
2023/10/21 03:30:59;;;;;;;0.10;0.10;;;;;;;;;;5114084;28;20020;-75
2023/10/21 03:33:26;;;;;;;0.10;0.10;;;;;;;;;;5114963;28;20031;-75
2023/10/21 03:35:53;;;;;;;0.17;0.17;;;;;;;;;;5125523;28;20092;-75
2023/10/21 03:38:19;;;;;;;0.20;0.17;;;;;;;;;;5117133;28;20473;-75
2023/10/21 03:40:54;;;;;;;0.20;0.20;;;;;;;;;;5112983;28;20084;-76
2023/10/21 03:43:20;;;;;;;0.55;0.20;;;;;;;;;;5113118;28;20028;-75
2023/10/21 03:45:46;;;;;;;0.25;0.20;;;;;;;;;;5114453;28;20038;-74
2023/10/21 03:48:12;;;;;;;0.20;0.20;;;;;;;;;;5111627;28;20015;-75
2023/10/21 03:50:38;;;;;;;0.30;0.25;;;;;;;;;;5094702;28;20027;-75
2023/10/21 03:53:04;;;;;;;0.20;0.20;;;;;;;;;;5094678;28;20036;-75
2023/10/21 03:55:33;;;;;;;0.10;0.10;;;;;;;;;;5093472;28;20028;-75
2023/10/21 03:57:59;;;;;;;0.30;0.30;;;;;;;;;;5093964;28;20020;-75
2023/10/21 04:00:25;;;;;;;0.20;0.20;;;;;;;;;;5093580;28;20035;-75
2023/10/21 04:02:51;;;;;;;0.10;0.10;;;;;;;;;;5093190;28;20415;-74
2023/10/21 04:05:17;;;;;;;0.50;0.40;;;;;;;;;;5091935;28;20077;-75
2023/10/21 04:07:47;;;;;;;0.20;0.20;;;;;;;;;;5092334;28;20024;-75
2023/10/21 04:10:13;;;;;;;0.20;0.10;;;;;;;;;;5108778;28;20079;-74
2023/10/21 04:12:39;;;;;;;0.52;0.52;;;;;;;;;;5112207;28;20023;-81
2023/10/21 04:15:08;;;;;;;0.40;0.38;;;;;;;;;;5117329;28;20027;-78
2023/10/21 04:17:34;;;;;;;0.35;0.35;;;;;;;;;;5119117;28;20607;-80
2023/10/21 04:20:00;;;;;;;0.57;0.57;;;;;;;;;;5123845;28;20028;-79
2023/10/21 04:22:27;;;;;;;0.50;0.50;;;;;;;;;;5128170;28;20059;-81
2023/10/21 04:24:53;;;;;;;0.52;0.50;;;;;;;;;;5125382;28;20020;-79
2023/10/21 04:27:19;;;;;;;0.50;0.50;;;;;;;;;;5122888;28;20043;-79
2023/10/21 04:29:45;;;;;;;0.82;0.40;;;;;;;;;;5123554;28;20091;-79
2023/10/21 04:32:11;;;;;;;0.65;0.50;;;;;;;;;;5125163;28;20020;-80
2023/10/21 04:34:37;;;;;;;0.35;0.32;;;;;;;;;;5127047;28;20077;-80
2023/10/21 04:37:03;;;;;;;0.43;0.40;;;;;;;;;;5126527;28;20092;-80
2023/10/21 04:39:30;;;;;;;0.40;0.40;;;;;;;;;;5125825;28;20016;-79
2023/10/21 04:41:56;;;;;;;0.30;0.30;;;;;;;;;;5127486;28;20023;-79
2023/10/21 04:44:23;;;;;;;0.20;0.20;;;;;;;;;;5126150;28;20020;-80
2023/10/21 04:46:50;;;;;;;0.30;0.30;;;;;;;;;;5126159;28;20020;-79
2023/10/21 04:49:16;;;;;;;0.30;0.30;;;;;;;;;;5126375;28;20035;-80
2023/10/21 04:51:42;;;;;;;0.45;0.45;;;;;;;;;;5126427;28;20077;-80
2023/10/21 04:54:08;;;;;;;0.50;0.22;;;;;;;;;;5125900;28;20032;-80
2023/10/21 04:56:35;;;;;;;0.45;0.30;;;;;;;;;;5126500;28;20084;-80
2023/10/21 04:59:01;;;;;;;0.35;0.35;;;;;;;;;;5127095;28;20057;-80
2023/10/21 05:01:27;;;;;;;0.25;0.20;;;;;;;;;;5127134;28;20023;-79
2023/10/21 05:03:53;;;;;;;0.20;0.20;;;;;;;;;;5123894;28;20024;-77
2023/10/21 05:06:19;;;;;;;0.30;0.22;;;;;;;;;;5124950;28;20024;-79
2023/10/21 05:08:45;;;;;;;0.60;0.20;;;;;;;;;;5127920;28;20027;-79
2023/10/21 05:11:11;;;;;;;0.43;0.40;;;;;;;;;;5127571;28;20083;-79
2023/10/21 05:13:38;;;;;;;0.30;0.30;;;;;;;;;;5127918;28;20024;-80
2023/10/21 05:16:04;;;;;;;0.15;0.15;;;;;;;;;;5122009;28;20111;-78
2023/10/21 05:18:30;;;;;;;0.30;0.30;;;;;;;;;;5122360;28;20024;-79
2023/10/21 05:20:56;;;;;;;0.30;0.30;;;;;;;;;;5124728;28;20435;-80
2023/10/21 05:23:23;;;;;;;0.10;0.10;;;;;;;;;;5123915;28;20091;-79
2023/10/21 05:25:49;;;;;;;0.15;0.15;;;;;;;;;;5123600;28;20047;-79
2023/10/21 05:28:15;;;;;;;0.20;0.20;;;;;;;;;;5121281;28;20073;-80
2023/10/21 05:30:43;;;;;;;0.82;0.30;;;;;;;;;;5124095;28;20020;-80
2023/10/21 05:33:09;;;;;;;0.13;0.13;;;;;;;;;;5125723;28;20501;-80
2023/10/21 05:35:35;;;;;;;0.50;0.20;;;;;;;;;;5114916;28;20039;-80
2023/10/21 05:38:01;;;;;;;0.20;0.20;;;;;;;;;;5106965;28;20032;-80
2023/10/21 05:40:27;;;;;;;0.10;0.10;;;;;;;;;;5106774;28;20024;-80
2023/10/21 05:42:53;;;;;;;0.20;0.20;;;;;;;;;;5112799;28;20054;-79
2023/10/21 05:45:19;;;;;;;0.10;0.10;;;;;;;;;;5127783;27;20035;-79
2023/10/21 05:47:45;;;;;;;0.15;0.15;;;;;;;;;;5146459;27;20039;-80
2023/10/21 05:50:12;;;;;;;0.20;0.20;;;;;;;;;;5146737;27;20038;-80
2023/10/21 05:52:38;;;;;;;0.20;0.20;;;;;;;;;;5146884;27;20027;-80
2023/10/21 05:55:05;;;;;;;0.10;0.10;;;;;;;;;;5138096;27;20483;-79
2023/10/21 05:57:31;;;;;;;0.10;0.10;;;;;;;;;;5104580;28;20043;-80
2023/10/21 05:59:57;;;;;;;0.05;0.05;;;;;;;;;;5104066;28;20110;-80
2023/10/21 06:02:23;;;;;;;0.10;0.10;;;;;;;;;;5103503;28;20039;-80
2023/10/21 06:04:49;;;;;;;0.17;0.17;;;;;;;;;;5104962;28;20024;-79
2023/10/21 06:07:16;;;;;;;0.10;0.10;;;;;;;;;;5104933;28;20024;-80
2023/10/21 06:09:42;;;;;;;0.47;0.20;;;;;;;;;;5104217;28;20035;-80
2023/10/21 06:12:10;;;;;;;0.30;0.00;;;;;;;;;;5105341;28;20028;-80
2023/10/21 06:14:36;;;;;;;0.28;0.28;;;;;;;;;;5113035;27;20023;-79
2023/10/21 06:17:02;;;;;;;0.15;0.15;;;;;;;;;;5124517;28;20027;-79
2023/10/21 06:19:28;;;;;;;0.17;0.17;;;;;;;;;;5107027;28;20175;-80
2023/10/21 06:21:55;;;;;;;0.17;0.17;;;;;;;;;;5104492;28;20507;-80
2023/10/21 06:24:21;;;;;;;0.10;0.10;;;;;;;;;;5105539;28;20020;-79
2023/10/21 06:26:47;;;;;;;0.05;0.05;;;;;;;;;;5104987;28;20027;-80
2023/10/21 06:29:13;;;;;;;0.10;0.10;;;;;;;;;;5104178;28;20099;-80
2023/10/21 06:31:39;;;;;;;0.20;0.20;;;;;;;;;;5104503;28;20398;-79
2023/10/21 06:34:05;;;;;;;0.10;0.10;;;;;;;;;;5103172;28;20020;-79
2023/10/21 06:36:33;;;;;;;0.38;0.38;;;;;;;;;;5104150;28;20127;-79
2023/10/21 06:38:59;;;;;;;0.20;0.20;;;;;;;;;;5103520;28;20035;-79
2023/10/21 06:41:26;;;;;;;0.30;0.30;;;;;;;;;;5107658;28;20024;-80
2023/10/21 06:43:52;;;;;;;0.10;0.10;;;;;;;;;;5110604;28;20035;-79
2023/10/21 06:46:19;;;;;;;0.63;0.20;;;;;;;;;;5128303;28;20024;-80
2023/10/21 06:48:45;;;;;;;0.20;0.20;;;;;;;;;;5126065;28;20016;-79
2023/10/21 06:51:13;;;;;;;0.30;0.30;;;;;;;;;;5126156;28;20028;-80
2023/10/21 06:53:39;;;;;;;0.20;0.20;;;;;;;;;;5126613;28;20088;-80
2023/10/21 06:56:10;;;;;;;0.10;0.10;;;;;;;;;;5124830;28;20023;-80
2023/10/21 06:58:36;;;;;;;0.63;0.37;;;;;;;;;;5124113;28;20032;-79
2023/10/21 07:01:07;;;;;;;0.30;0.30;;;;;;;;;;5124666;28;20035;-80
2023/10/21 07:03:33;;;;;;;0.30;0.30;;;;;;;;;;5126243;28;20030;-81
2023/10/21 07:05:59;;;;;;;0.20;0.20;;;;;;;;;;5125298;28;20023;-80
2023/10/21 07:08:25;;;;;;;0.40;0.30;;;;;;;;;;5126995;28;20015;-80
2023/10/21 07:10:53;;;;;;;0.20;0.20;;;;;;;;;;5127142;28;20023;-80
2023/10/21 07:13:19;;;;;;;0.17;0.17;;;;;;;;;;5127592;28;20428;-80
2023/10/21 07:15:47;;;;;;;0.30;0.30;;;;;;;;;;5132967;27;20045;-80
2023/10/21 07:18:14;;;;;;;0.22;0.20;;;;;;;;;;5126837;28;20036;-80
2023/10/21 07:20:40;;;;;;;0.38;0.25;;;;;;;;;;5125769;28;20039;-80
2023/10/21 07:23:08;;;;;;;0.32;0.32;;;;;;;;;;5124691;28;20027;-80
2023/10/21 07:25:36;;;;;;;0.10;0.10;;;;;;;;;;5126268;28;20016;-79
2023/10/21 07:28:02;;;;;;;0.35;0.30;;;;;;;;;;5125181;28;20019;-79
2023/10/21 07:30:29;;;;;;;0.30;0.30;;;;;;;;;;5124664;28;20023;-79
2023/10/21 07:32:55;;;;;;;0.20;0.20;;;;;;;;;;5126211;28;20034;-79
2023/10/21 07:35:21;;;;;;;0.20;0.20;;;;;;;;;;5126303;28;20023;-79
2023/10/21 07:37:48;;;;;;;0.20;0.20;;;;;;;;;;5122321;28;20034;-79
2023/10/21 07:40:14;;;;;;;0.20;0.20;;;;;;;;;;5125113;28;20027;-81
2023/10/21 07:42:40;;;;;;;0.10;0.10;;;;;;;;;;5127186;28;20027;-80
2023/10/21 07:45:07;;;;;;;0.15;0.15;;;;;;;;;;5127579;27;20031;-80
2023/10/21 07:47:33;;;;;;;0.20;0.20;;;;;;;;;;5132016;27;20095;-80
2023/10/21 07:50:05;;;;;;;0.30;0.20;;;;;;;;;;5125779;28;20023;-79
2023/10/21 07:52:31;;;;;;;;;;;;;;;;;;5126826;28;20083;-80
2023/10/21 07:54:57;;;;;;;0.25;0.20;;;;;;;;;;5126543;28;19919;-82
2023/10/21 07:57:23;;;;;;;0.20;0.20;;;;;;;;;;5118169;28;20053;-80
2023/10/21 07:59:50;;;;;;;0.20;0.20;;;;;;;;;;5106584;28;20083;-80
2023/10/21 08:02:16;;;;;;;0.10;0.10;;;;;;;;;;5106059;28;20097;-80
2023/10/21 08:04:42;;;;;;;0.10;0.10;;;;;;;;;;5103162;28;20027;-80
2023/10/21 08:07:08;;;;;;;0.10;0.10;;;;;;;;;;5105669;28;20026;-80
2023/10/21 08:09:35;;;;;;;0.40;0.40;;;;;;;;;;5105287;28;20028;-81
2023/10/21 08:12:02;;;;;;;0.20;0.20;;;;;;;;;;5104973;28;20154;-80
2023/10/21 08:14:30;;;;;;;0.17;0.17;;;;;;;;;;5109335;28;20030;-80
2023/10/21 08:16:56;;;;;;;0.20;0.20;;;;;;;;;;5127271;28;20047;-80
2023/10/21 08:19:24;;;;;;;0.20;0.20;;;;;;;;;;5125870;28;20095;-80
2023/10/21 08:21:50;;;;;;;0.30;0.30;;;;;;;;;;5125143;28;20087;-79
2023/10/21 08:24:16;;;;;;;0.28;0.20;;;;;;;;;;5121444;28;20056;-80
2023/10/21 08:26:43;;;;;;;0.30;0.30;;;;;;;;;;5121828;28;20027;-80
2023/10/21 08:29:12;;;;;;;0.13;0.13;;;;;;;;;;5122861;28;20031;-80
2023/10/21 08:31:38;;;;;;;0.20;0.20;;;;;;;;;;5128127;28;20030;-79
2023/10/21 08:34:09;;;;;;;0.20;0.20;;;;;;;;;;5131462;28;20508;-80
2023/10/21 08:36:35;;;;;;;0.25;0.20;;;;;;;;;;5129249;28;20076;-80
2023/10/21 08:39:02;;;;;;;0.17;0.17;;;;;;;;;;5126579;28;20030;-80
2023/10/21 08:41:35;;;;;;;0.65;0.17;;;;;;;;;;5127998;28;20024;-80
2023/10/21 08:44:01;;;;;;;0.30;0.30;;;;;;;;;;5123443;28;20028;-81
2023/10/21 08:46:27;;;;;;;0.22;0.22;;;;;;;;;;5131398;28;20031;-80
2023/10/21 08:48:53;;;;;;;1.80;0.30;;;;;;;;;;5129299;28;20083;-80
2023/10/21 08:51:20;;;;;;;1.45;0.50;;;;;;;;;;5122192;28;20042;-81
2023/10/21 08:53:47;;;;;;;0.43;0.40;;;;;;;;;;5123316;28;20114;-80
2023/10/21 08:56:13;;;;;;;0.40;0.40;;;;;;;;;;5121926;28;20050;-80
2023/10/21 08:58:40;;;;;;;0.35;0.35;;;;;;;;;;5122853;28;20073;-80
2023/10/21 09:01:07;;;;;;;0.32;0.32;;;;;;;;;;5114030;28;20039;-80
2023/10/21 09:03:33;;;;;;;0.22;0.22;;;;;;;;;;5102088;28;20059;-79
2023/10/21 09:06:10;;;;;;;0.35;0.35;;;;;;;;;;5102937;28;20030;-79
2023/10/21 09:08:36;;;;;;;0.30;0.30;;;;;;;;;;5105797;28;20016;-80
2023/10/21 09:11:06;;;;;;;1.00;0.57;;;;;;;;;;5106708;28;20062;-80
2023/10/21 09:13:34;;;;;;;0.20;0.20;;;;;;;;;;5106961;28;20059;-81
2023/10/21 09:16:01;;;;;;;0.22;0.22;;;;;;;;;;5126045;28;20066;-80
2023/10/21 09:18:27;;;;;;;0.28;0.20;;;;;;;;;;5126399;28;20026;-78
2023/10/21 09:20:53;;;;;;;0.20;0.20;;;;;;;;;;5126366;28;20440;-80
2023/10/21 09:23:19;;;;;;;0.40;0.20;;;;;;;;;;5127667;28;20032;-81
2023/10/21 09:25:51;;;;;;;0.40;0.40;;;;;;;;;;5127018;28;20019;-81
2023/10/21 09:28:21;;;;;;;0.10;0.10;;;;;;;;;;5128254;28;20027;-81
2023/10/21 09:30:57;;;;;;;0.20;0.20;;;;;;;;;;5126137;28;20401;-81
2023/10/21 09:33:24;;;;;;;0.10;0.10;;;;;;;;;;5127733;28;20106;-81
2023/10/21 09:36:04;;;;;;;0.22;0.20;;;;;;;;;;5129044;28;20042;-81
2023/10/21 09:38:36;;;;;;;0.20;0.20;;;;;;;;;;5128073;28;20023;-81
2023/10/21 09:41:04;;;;;;;0.30;0.30;;;;;;;;;;5126859;28;20024;-79
2023/10/21 09:43:30;;;;;;;0.22;0.20;;;;;;;;;;5127195;28;20085;-80
2023/10/21 09:45:58;;;;;;;0.20;0.20;;;;;;;;;;5125492;27;20016;-80
2023/10/21 09:48:25;;;;;;;0.22;0.20;;;;;;;;;;5128003;28;20091;-80
2023/10/21 09:50:52;;;;;;;0.50;0.40;;;;;;;;;;5127683;28;20030;-81
2023/10/21 09:53:23;;;;;;;0.50;0.50;;;;;;;;;;5125843;28;20048;-82
2023/10/21 09:55:49;;;;;;;0.40;0.40;;;;;;;;;;5127130;28;20063;-80
2023/10/21 09:58:16;;;;;;;0.50;0.50;;;;;;;;;;5126794;28;20459;-80
2023/10/21 10:00:42;;;;;;;0.30;0.30;;;;;;;;;;5115801;28;20043;-80
2023/10/21 10:03:08;;;;;;;0.43;0.43;;;;;;;;;;5106734;28;20111;-80
2023/10/21 10:05:37;;;;;;;0.38;0.38;;;;;;;;;;5106938;28;20099;-80
2023/10/21 10:08:04;;;;;;;0.47;0.32;;;;;;;;;;5106954;28;20035;-80
2023/10/21 10:10:31;;;;;;;0.20;0.20;;;;;;;;;;5105385;28;20092;-80
2023/10/21 10:13:11;;;;;;;0.20;0.20;;;;;;;;;;5106363;28;20032;-81
2023/10/21 10:15:42;;;;;;;0.35;0.35;;;;;;;;;;5121588;28;20494;-80
2023/10/21 10:18:23;;;;;;;0.20;0.20;;;;;;;;;;5127887;28;20023;-80
2023/10/21 10:20:50;;;;;;;0.20;0.20;;;;;;;;;;5124256;28;20030;-80
2023/10/21 10:23:18;;;;;;;0.40;0.30;;;;;;;;;;5125208;28;20251;-80
2023/10/21 10:25:54;;;;;;;0.40;0.40;;;;;;;;;;5126143;28;20024;-80
2023/10/21 10:28:26;;;;;;;0.40;0.40;;;;;;;;;;5127086;28;20023;-79
2023/10/21 10:30:53;;;;;;;0.20;0.20;;;;;;;;;;5126850;28;20028;-81
2023/10/21 10:33:23;;;;;;;0.10;0.10;;;;;;;;;;5127255;28;20028;-80
2023/10/21 10:35:51;;;;;;;0.80;0.30;;;;;;;;;;5125885;28;20338;-81
2023/10/21 10:38:19;;;;;;;0.45;0.15;;;;;;;;;;5125544;28;20019;-79
2023/10/21 10:40:46;;;;;;;0.20;0.20;;;;;;;;;;5124673;28;20028;-80
2023/10/21 10:43:12;;;;;;;0.30;0.30;;;;;;;;;;5126445;28;20034;-80
2023/10/21 10:45:38;;;;;;;0.10;0.10;;;;;;;;;;5128921;27;20020;-80
2023/10/21 10:48:07;;;;;;;0.50;0.50;;;;;;;;;;5145140;27;20093;-80
2023/10/21 10:50:36;;;;;;;0.40;0.40;;;;;;;;;;5141184;27;20020;-80
2023/10/21 10:53:16;;;;;;;0.73;0.35;;;;;;;;;;5148814;27;20090;-79
2023/10/21 10:55:44;;;;;;;0.20;0.20;;;;;;;;;;5158341;27;20046;-81
2023/10/21 10:58:11;;;;;;;0.40;0.38;;;;;;;;;;5157739;27;20023;-80
2023/10/21 11:00:39;;;;;;;0.20;0.20;;;;;;;;;;5156834;27;20058;-80
2023/10/21 11:03:06;;;;;;;0.50;0.35;;;;;;;;;;5148783;27;20031;-80
2023/10/21 11:05:33;;;;;;;0.10;0.10;;;;;;;;;;5111942;27;20039;-80
2023/10/21 11:07:59;;;;;;;0.10;0.10;;;;;;;;;;5106300;28;20020;-80
2023/10/21 11:10:25;;;;;;;0.15;0.15;;;;;;;;;;5107503;28;20042;-81
2023/10/21 11:12:52;;;;;;;0.20;0.20;;;;;;;;;;5106808;28;20035;-79
2023/10/21 11:15:18;;;;;;;0.20;0.20;;;;;;;;;;5119511;27;20024;-80
2023/10/21 11:17:47;;;;;;;0.20;0.20;;;;;;;;;;5130578;27;20073;-81
2023/10/21 11:20:14;;;;;;;0.80;0.30;;;;;;;;;;5127529;28;20016;-80
2023/10/21 11:22:43;;;;;;;0.50;0.30;;;;;;;;;;5107989;28;20040;-80
2023/10/21 11:25:12;;;;;;;0.50;0.30;;;;;;;;;;5106748;28;20099;-80
2023/10/21 11:27:40;;;;;;;0.20;0.20;;;;;;;;;;5099166;28;20024;-80
2023/10/21 11:30:08;;;;;;;0.20;0.20;;;;;;;;;;5098418;28;20032;-80
2023/10/21 11:32:35;;;;;;;0.25;0.10;;;;;;;;;;5102217;28;20028;-80
2023/10/21 11:35:05;;;;;;;2.30;0.30;;;;;;;;;;5104703;28;20039;-80
2023/10/21 11:37:32;;;;;;;0.25;0.20;;;;;;;;;;5107010;28;20027;-80
2023/10/21 11:39:58;;;;;;;1.35;0.30;;;;;;;;;;5108619;28;20020;-81
2023/10/21 11:42:25;;;;;;;0.22;0.20;;;;;;;;;;5124358;28;20030;-80
2023/10/21 11:44:57;;;;;;;0.80;0.15;;;;;;;;;;5128755;28;20030;-79
2023/10/21 11:47:26;;;;;;;0.15;0.10;;;;;;;;;;5130018;28;20026;-80
2023/10/21 11:49:54;;;;;;;0.30;0.30;;;;;;;;;;5131671;28;20042;-79
2023/10/21 11:52:21;;;;;;;0.73;0.40;;;;;;;;;;5130446;28;20072;-80
2023/10/21 11:57:41;;;;;;;0.30;0.13;;;;;;;;;;5129128;28;20023;-80
2023/10/21 12:16:37;;;;;;;2.38;0.30;;;;;;;;;;5111203;27;20003;-82
2023/10/21 12:40:33;;;;;;;0.40;0.40;;;;;;;;;;5135489;28;20468;-81
2023/10/21 12:46:00;;;;;;;0.60;0.30;;;;;;;;;;5116358;27;20035;-80
2023/10/21 12:48:27;;;;;;;0.28;0.28;;;;;;;;;;5155019;27;20045;-80
2023/10/21 12:50:54;;;;;;;0.45;0.45;;;;;;;;;;5156274;27;20038;-79
2023/10/21 12:53:21;;;;;;;0.20;0.20;;;;;;;;;;5153870;27;20065;-80
2023/10/21 12:55:47;;;;;;;0.30;0.20;;;;;;;;;;5156044;27;20027;-81
2023/10/21 12:58:14;;;;;;;0.65;0.20;;;;;;;;;;5156619;27;20519;-80
2023/10/21 13:00:46;;;;;;;0.50;0.22;;;;;;;;;;5157853;27;20027;-81
2023/10/21 13:03:13;;;;;;;0.20;0.20;;;;;;;;;;5135554;27;20039;-80
2023/10/21 13:05:39;;;;;;;0.20;0.20;;;;;;;;;;5113516;28;20024;-80
2023/10/21 13:08:09;;;;;;;0.22;0.10;;;;;;;;;;5112387;28;20032;-79
2023/10/21 13:10:35;;;;;;;0.73;0.13;;;;;;;;;;5121512;28;20020;-80
2023/10/21 13:13:02;;;;;;;0.30;0.20;;;;;;;;;;5129345;28;20024;-79
2023/10/21 13:15:29;;;;;;;0.40;0.30;;;;;;;;;;5128689;28;20563;-80
2023/10/21 13:17:55;;;;;;;0.20;0.20;;;;;;;;;;5129748;28;20407;-80
2023/10/21 13:20:21;;;;;;;0.35;0.20;;;;;;;;;;5133849;28;20054;-79
2023/10/21 13:22:48;;;;;;;0.20;0.20;;;;;;;;;;5135037;28;20040;-80
2023/10/21 13:25:14;;;;;;;3.22;0.30;;;;;;;;;;5131891;28;20053;-80
2023/10/21 13:27:41;;;;;;;0.20;0.20;;;;;;;;;;5131113;28;20088;-80
2023/10/21 13:30:13;;;;;;;0.40;0.20;;;;;;;;;;5132042;28;20038;-79
2023/10/21 13:32:39;;;;;;;;;;;;;;;;;;5131710;28;20023;-81
2023/10/21 13:35:09;;;;;;;1.25;0.20;;;;;;;;;;5129416;28;19949;-79
2023/10/21 13:37:39;;;;;;;1.95;0.30;;;;;;;;;;5131763;28;20028;-80
2023/10/21 13:40:15;;;;;;;0.10;0.10;;;;;;;;;;5136901;27;20023;-80
2023/10/21 13:42:44;;;;;;;1.05;0.40;;;;;;;;;;5137612;27;20063;-80
2023/10/21 13:45:19;;;;;;;0.25;0.25;;;;;;;;;;5128194;28;20031;-79
2023/10/21 13:47:49;;;;;;;0.20;0.20;;;;;;;;;;5150443;27;20023;-80
2023/10/21 13:50:17;;;;;;;0.82;0.30;;;;;;;;;;5156612;27;20033;-80
2023/10/21 13:52:45;;;;;;;0.95;0.40;;;;;;;;;;5157227;27;20060;-80
2023/10/21 13:55:14;;;;;;;1.85;0.20;;;;;;;;;;5155488;27;20023;-80
2023/10/21 13:57:41;;;;;;;0.57;0.35;;;;;;;;;;5155634;27;20004;-80
2023/10/21 14:00:25;;;;;;;0.85;0.30;;;;;;;;;;5157577;27;20035;-80
2023/10/21 14:02:51;;;;;;;1.75;0.30;;;;;;;;;;5159524;27;20022;-80
2023/10/21 14:05:17;;;;;;;0.82;0.70;;;;;;;;;;5134128;27;20035;-79
2023/10/21 14:07:43;;;;;;;0.50;0.50;;;;;;;;;;5118723;28;20016;-79
2023/10/21 14:10:11;;;;;;;0.45;0.40;;;;;;;;;;5118681;28;20063;-79
2023/10/21 14:12:39;;;;;;;0.73;0.60;;;;;;;;;;5116854;28;20038;-80
2023/10/21 14:15:10;;;;;;;0.43;0.43;;;;;;;;;;5127540;28;20047;-79
2023/10/21 14:17:36;;;;;;;0.50;0.50;;;;;;;;;;5133644;28;20123;-80
2023/10/21 14:20:10;;;;;;;0.30;0.30;;;;;;;;;;5132684;28;20110;-80
2023/10/21 14:22:36;;;;;;;0.82;0.50;;;;;;;;;;5132355;28;20046;-80
2023/10/21 14:25:04;;;;;;;1.55;0.50;;;;;;;;;;5125089;28;20327;-80
2023/10/21 14:27:31;;;;;;;1.17;0.40;;;;;;;;;;5110247;28;20047;-80
2023/10/21 14:30:01;;;;;;;0.30;0.30;;;;;;;;;;5112937;28;20027;-80
2023/10/21 14:32:27;;;;;;;0.25;0.25;;;;;;;;;;5115899;28;20028;-80
2023/10/21 14:34:53;;;;;;;0.38;0.30;;;;;;;;;;5116099;28;20020;-80
2023/10/21 14:37:19;;;;;;;0.30;0.30;;;;;;;;;;5115895;28;20012;-79
2023/10/21 14:39:45;;;;;;;0.30;0.30;;;;;;;;;;5114498;28;20074;-79
2023/10/21 14:42:13;;;;;;;0.40;0.30;;;;;;;;;;5110167;28;20084;-79
2023/10/21 14:44:41;;;;;;;0.65;0.65;;;;;;;;;;5118565;28;20080;-80
2023/10/21 14:47:07;;;;;;;0.30;0.30;;;;;;;;;;5159439;22;20015;-78
2023/10/21 14:49:33;;;;;;;0.52;0.32;;;;;;;;;;5101153;28;20024;-80
2023/10/21 14:51:59;;;;;;;0.35;0.20;;;;;;;;;;5098674;28;20024;-79
2023/10/21 14:54:25;;;;;;;0.32;0.22;;;;;;;;;;5099128;28;20032;-80
2023/10/21 14:56:52;;;;;;;0.32;0.30;;;;;;;;;;5097493;28;20054;-80
2023/10/21 14:59:18;;;;;;;0.57;0.40;;;;;;;;;;5098498;28;20024;-80
2023/10/21 15:01:44;;;;;;;0.32;0.30;;;;;;;;;;5098828;28;20012;-79
2023/10/21 15:04:10;;;;;;;0.40;0.40;;;;;;;;;;5098507;28;20024;-79
2023/10/21 15:06:36;;;;;;;0.22;0.20;;;;;;;;;;5082000;28;20032;-78
2023/10/21 15:09:02;;;;;;;2.00;0.25;;;;;;;;;;5078426;28;20458;-79
2023/10/21 15:11:28;;;;;;;0.20;0.20;;;;;;;;;;5077718;28;20024;-79
2023/10/21 15:13:55;;;;;;;0.25;0.15;;;;;;;;;;5076704;28;20032;-79
2023/10/21 15:16:22;;;;;;;2.30;0.50;;;;;;;;;;5086072;28;20398;-79
2023/10/21 15:18:50;;;;;;;0.30;0.30;;;;;;;;;;5105791;28;20195;-79
2023/10/21 15:21:17;;;;;;;0.30;0.30;;;;;;;;;;5110865;28;20020;-79
2023/10/21 15:23:43;;;;;;;2.95;0.50;;;;;;;;;;5112931;28;20047;-79
2023/10/21 15:26:13;;;;;;;0.40;0.40;;;;;;;;;;5099698;28;20021;-79